createdAt,value
2023-05-15T00:00:17.685Z,100169.88
2023-05-15T00:03:05.045Z,100163.63
2023-05-15T00:05:33.022Z,100153.84
2023-05-15T00:08:00.221Z,100155.59
2023-05-15T00:10:27.774Z,100155.19
2023-05-15T00:12:55.679Z,100153.84
2023-05-15T00:15:23.508Z,100140.09
2023-05-15T00:17:50.987Z,100140.38
2023-05-15T00:20:18.681Z,100146.56
2023-05-15T00:22:46.021Z,100138.31
2023-05-15T00:25:13.569Z,100132.06
2023-05-15T00:27:40.793Z,100134.28
2023-05-15T00:30:08.937Z,100130.06
2023-05-15T00:32:36.269Z,100125.19
2023-05-15T00:35:05.394Z,100130.44
2023-05-15T00:37:32.619Z,100118.81
2023-05-15T00:40:00.226Z,100114.84
2023-05-15T00:42:29.100Z,100109.91
2023-05-15T00:44:58.432Z,100097.94
2023-05-15T00:47:27.372Z,100106.06
2023-05-15T00:49:55.770Z,100105.03
2023-05-15T00:52:23.723Z,100101.25
2023-05-15T00:54:51.560Z,100103.47
2023-05-15T00:57:20.265Z,100099.47
2023-05-15T00:59:48.933Z,100098.06
2023-05-15T01:02:17.703Z,100077.00
2023-05-15T01:04:45.949Z,100087.78
2023-05-15T01:07:15.107Z,100077.19
2023-05-15T01:09:45.828Z,100092.56
2023-05-15T01:12:15.585Z,100078.88
2023-05-15T01:14:43.080Z,100092.53
2023-05-15T01:17:10.264Z,100095.94
2023-05-15T01:19:38.879Z,100086.38
2023-05-15T01:22:18.448Z,100088.34
2023-05-15T01:25:15.195Z,100080.38
2023-05-15T01:27:51.478Z,100078.50
2023-05-15T01:30:31.129Z,100076.38
2023-05-15T01:33:22.518Z,100076.25
2023-05-15T01:36:12.655Z,100074.84
2023-05-15T01:38:58.806Z,100068.78
2023-05-15T01:41:45.485Z,100075.31
2023-05-15T01:44:26.488Z,100062.53
2023-05-15T01:46:57.796Z,100061.28
2023-05-15T01:49:27.252Z,100065.41
2023-05-15T01:52:18.967Z,100060.81
2023-05-15T01:54:46.831Z,100057.81
2023-05-15T01:57:15.425Z,100053.53
2023-05-15T01:59:43.193Z,100059.19
2023-05-15T02:02:11.233Z,100059.06
2023-05-15T02:04:39.043Z,100061.19
2023-05-15T02:07:07.618Z,100043.66
2023-05-15T02:09:36.179Z,100051.44
2023-05-15T02:12:05.399Z,100051.31
2023-05-15T02:14:33.305Z,100049.81
2023-05-15T02:17:00.876Z,100052.22
2023-05-15T02:19:28.164Z,100040.75
2023-05-15T02:21:55.749Z,100033.81
2023-05-15T02:24:22.926Z,100039.03
2023-05-15T02:27:04.891Z,100039.00
2023-05-15T02:29:42.471Z,100032.13
2023-05-15T02:32:17.308Z,100034.75
2023-05-15T02:35:19.471Z,100029.09
2023-05-15T02:37:49.842Z,100021.28
2023-05-15T02:40:19.641Z,100024.38
2023-05-15T02:42:48.045Z,100019.41
2023-05-15T02:45:16.470Z,100015.13
2023-05-15T02:47:45.818Z,100003.44
2023-05-15T02:50:13.274Z,100008.81
2023-05-15T02:52:40.731Z,100011.88
2023-05-15T02:55:08.795Z,99993.84
2023-05-15T02:57:36.541Z,100001.78
2023-05-15T03:00:06.745Z,99993.53
2023-05-15T03:02:34.255Z,99999.31
2023-05-15T03:05:01.519Z,99987.53
2023-05-15T03:07:29.162Z,99982.94
2023-05-15T03:09:56.432Z,99982.59
2023-05-15T03:12:23.924Z,99985.13
2023-05-15T03:14:51.090Z,99975.13
2023-05-15T03:17:18.554Z,99969.03
2023-05-15T03:19:45.740Z,99968.41
2023-05-15T03:22:13.423Z,99964.38
2023-05-15T03:24:40.674Z,99963.28
2023-05-15T03:27:08.137Z,99965.97
2023-05-15T03:29:35.334Z,99973.06
2023-05-15T03:32:02.807Z,99957.19
2023-05-15T03:34:30.138Z,99956.81
2023-05-15T03:36:57.961Z,99952.13
2023-05-15T03:39:25.173Z,99955.69
2023-05-15T03:41:52.639Z,99958.66
2023-05-15T03:44:22.770Z,99945.03
2023-05-15T03:46:50.377Z,99940.34
2023-05-15T03:49:18.286Z,99939.25
2023-05-15T03:51:45.873Z,99941.88
2023-05-15T03:54:14.222Z,99930.75
2023-05-15T03:56:41.727Z,99929.63
2023-05-15T03:59:09.190Z,99939.91
2023-05-15T04:01:47.333Z,99945.97
2023-05-15T04:04:22.838Z,99934.09
2023-05-15T04:06:51.416Z,99939.44
2023-05-15T04:09:18.636Z,99946.66
2023-05-15T04:11:46.826Z,99936.09
2023-05-15T04:14:14.123Z,99930.69
2023-05-15T04:16:41.729Z,99931.72
2023-05-15T04:19:08.950Z,99929.84
2023-05-15T04:21:36.517Z,99934.28
2023-05-15T04:24:04.141Z,99932.53
2023-05-15T04:26:31.739Z,99935.66
2023-05-15T04:29:03.914Z,99931.56
2023-05-15T04:31:32.417Z,99930.69
2023-05-15T04:33:59.655Z,99930.69
2023-05-15T04:36:27.223Z,99935.19
2023-05-15T04:38:54.513Z,99925.28
2023-05-15T04:41:22.325Z,99910.78
2023-05-15T04:43:49.576Z,99915.06
2023-05-15T04:46:17.086Z,99913.28
2023-05-15T04:48:44.276Z,99906.56
2023-05-15T04:51:12.291Z,99912.91
2023-05-15T04:53:39.431Z,99913.50
2023-05-15T04:56:07.101Z,99896.69
2023-05-15T04:58:34.257Z,99895.88
2023-05-15T05:01:03.918Z,99899.28
2023-05-15T05:03:31.650Z,99902.91
2023-05-15T05:05:59.262Z,99901.47
2023-05-15T05:08:26.584Z,99893.72
2023-05-15T05:10:59.854Z,99891.72
2023-05-15T05:13:27.039Z,99883.44
2023-05-15T05:15:54.595Z,99880.38
2023-05-15T05:18:21.778Z,99887.44
2023-05-15T05:20:50.662Z,99872.66
2023-05-15T05:23:18.361Z,99876.91
2023-05-15T05:25:46.178Z,99869.88
2023-05-15T05:28:13.402Z,99869.25
2023-05-15T05:30:45.498Z,99868.66
2023-05-15T05:33:13.053Z,99881.91
2023-05-15T05:35:40.778Z,99875.94
2023-05-15T05:38:08.006Z,99872.34
2023-05-15T05:40:35.508Z,99861.41
2023-05-15T05:43:03.137Z,99871.72
2023-05-15T05:45:31.219Z,99877.56
2023-05-15T05:47:58.756Z,99870.56
2023-05-15T05:50:26.411Z,99867.03
2023-05-15T05:52:53.552Z,99870.25
2023-05-15T05:55:21.014Z,99880.75
2023-05-15T05:57:48.250Z,99863.44
2023-05-15T06:00:16.129Z,99850.47
2023-05-15T06:02:43.848Z,99879.34
2023-05-15T06:05:11.606Z,99873.84
2023-05-15T06:07:38.864Z,99859.59
2023-05-15T06:10:09.550Z,99877.31
2023-05-15T06:12:37.007Z,99882.47
2023-05-15T06:15:05.032Z,99887.75
2023-05-15T06:17:32.269Z,99897.78
2023-05-15T06:19:59.823Z,99895.97
2023-05-15T06:22:27.011Z,99902.13
2023-05-15T06:24:54.487Z,99872.16
2023-05-15T06:27:21.660Z,99881.81
2023-05-15T06:29:49.162Z,99873.81
2023-05-15T06:32:16.397Z,99838.75
2023-05-15T06:34:43.977Z,99831.78
2023-05-15T06:37:11.857Z,99826.47
2023-05-15T06:39:39.457Z,99843.97
2023-05-15T06:42:06.806Z,99841.69
2023-05-15T06:44:36.025Z,99837.09
2023-05-15T06:47:03.601Z,99825.09
2023-05-15T06:49:31.282Z,99826.38
2023-05-15T06:51:58.615Z,99820.81
2023-05-15T06:54:26.174Z,99802.94
2023-05-15T06:56:53.361Z,99828.38
2023-05-15T06:59:20.901Z,99829.03
2023-05-15T07:01:48.141Z,99835.16
2023-05-15T07:04:15.832Z,99835.97
2023-05-15T07:06:43.698Z,99821.75
2023-05-15T07:09:12.859Z,99839.69
2023-05-15T07:11:42.259Z,99854.25
2023-05-15T07:14:09.824Z,99839.16
2023-05-15T07:16:37.004Z,99844.72
2023-05-15T07:19:04.569Z,99842.94
2023-05-15T07:21:32.505Z,99860.25
2023-05-15T07:24:00.039Z,99828.91
2023-05-15T07:26:34.369Z,99842.81
2023-05-15T07:29:04.505Z,99837.06
2023-05-15T07:31:32.177Z,99832.38
2023-05-15T07:33:59.679Z,99856.00
2023-05-15T07:36:26.991Z,99795.97
2023-05-15T07:38:54.502Z,99767.31
2023-05-15T07:41:22.077Z,99781.56
2023-05-15T07:43:49.550Z,99769.78
2023-05-15T07:46:16.871Z,99782.44
2023-05-15T07:48:44.436Z,99779.09
2023-05-15T07:51:11.633Z,99767.94
2023-05-15T07:53:39.119Z,99780.13
2023-05-15T07:56:06.560Z,99762.94
2023-05-15T07:58:37.102Z,99748.28
2023-05-15T08:01:05.161Z,99752.25
2023-05-15T08:03:33.987Z,99769.66
2023-05-15T08:06:01.420Z,99770.66
2023-05-15T08:08:28.980Z,99759.97
2023-05-15T08:10:56.282Z,99741.34
2023-05-15T08:13:23.892Z,99748.50
2023-05-15T08:15:51.092Z,99752.25
2023-05-15T08:18:18.675Z,99762.31
2023-05-15T08:20:46.054Z,99764.16
2023-05-15T08:23:13.586Z,99752.47
2023-05-15T08:25:40.822Z,99760.94
2023-05-15T08:28:08.381Z,99771.25
2023-05-15T08:30:36.270Z,99768.53
2023-05-15T08:33:03.878Z,99775.69
2023-05-15T08:35:31.148Z,99775.56
2023-05-15T08:37:59.091Z,99773.56
2023-05-15T08:40:38.324Z,99772.13
2023-05-15T08:43:15.834Z,99773.13
2023-05-15T08:45:44.004Z,99761.84
2023-05-15T08:48:16.394Z,99776.34
2023-05-15T08:50:44.665Z,99786.66
2023-05-15T08:53:13.363Z,99776.00
2023-05-15T08:55:40.916Z,99781.34
2023-05-15T08:58:09.266Z,99758.16
2023-05-15T09:00:37.779Z,99748.78
2023-05-15T09:03:05.825Z,99773.38
2023-05-15T09:05:33.584Z,99765.97
2023-05-15T09:08:04.452Z,99762.63
2023-05-15T09:10:33.227Z,99740.94
2023-05-15T09:13:02.382Z,99744.31
2023-05-15T09:15:30.663Z,99742.44
2023-05-15T09:17:58.392Z,99755.81
2023-05-15T09:20:34.012Z,99779.44
2023-05-15T09:23:03.355Z,99769.88
2023-05-15T09:25:40.545Z,99763.56
2023-05-15T09:28:25.112Z,99774.00
2023-05-15T09:30:58.804Z,99759.06
2023-05-15T09:33:37.977Z,99778.91
2023-05-15T09:36:07.284Z,99772.31
2023-05-15T09:38:40.064Z,99753.72
2023-05-15T09:41:09.176Z,99753.38
2023-05-15T09:43:38.547Z,99750.13
2023-05-15T09:46:07.119Z,99756.84
2023-05-15T09:48:35.696Z,99747.22
2023-05-15T09:51:04.609Z,99746.81
2023-05-15T09:53:32.328Z,99742.84
2023-05-15T09:55:59.640Z,99748.81
2023-05-15T09:58:27.143Z,99754.63
2023-05-15T10:00:54.301Z,99743.66
2023-05-15T10:03:21.994Z,99760.03
2023-05-15T10:05:49.404Z,99760.06
2023-05-15T10:08:27.383Z,99760.75
2023-05-15T10:10:56.052Z,99765.06
2023-05-15T10:13:24.046Z,99770.06
2023-05-15T10:15:52.443Z,99770.94
2023-05-15T10:18:26.247Z,99783.53
2023-05-15T10:20:53.544Z,99783.09
2023-05-15T10:23:22.557Z,99779.56
2023-05-15T10:26:03.297Z,99782.09
2023-05-15T10:28:32.109Z,99800.16
2023-05-15T10:31:04.025Z,99787.78
2023-05-15T10:33:32.911Z,99761.03
2023-05-15T10:36:00.823Z,99761.75
2023-05-15T10:38:29.525Z,99768.34
2023-05-15T10:41:13.144Z,99769.50
2023-05-15T10:43:44.804Z,99755.59
2023-05-15T10:46:14.041Z,99745.72
2023-05-15T10:48:42.308Z,99733.91
2023-05-15T10:51:23.838Z,99733.81
2023-05-15T10:53:51.419Z,99709.50
2023-05-15T10:56:18.767Z,99685.63
2023-05-15T10:58:51.590Z,99682.44
2023-05-15T11:01:33.141Z,99661.38
2023-05-15T11:04:16.702Z,99668.28
2023-05-15T11:06:49.589Z,99654.09
2023-05-15T11:09:28.788Z,99646.06
2023-05-15T11:11:58.145Z,99635.16
2023-05-15T11:14:35.175Z,99619.19
2023-05-15T11:17:04.759Z,99629.47
2023-05-15T11:19:40.117Z,99610.75
2023-05-15T11:22:28.203Z,99613.41
2023-05-15T11:25:01.650Z,99608.63
2023-05-15T11:27:33.257Z,99609.53
2023-05-15T11:30:17.986Z,99601.16
2023-05-15T11:32:59.731Z,99584.19
2023-05-15T11:35:46.649Z,99598.88
2023-05-15T11:38:18.364Z,99584.66
2023-05-15T11:40:52.680Z,99582.38
2023-05-15T11:43:24.858Z,99593.91
2023-05-15T11:46:05.012Z,99595.47
2023-05-15T11:48:43.260Z,99588.97
2023-05-15T11:51:30.262Z,99589.28
2023-05-15T11:53:58.304Z,99603.72
2023-05-15T11:56:30.194Z,99587.38
2023-05-15T11:58:59.379Z,99600.25
2023-05-15T12:01:28.328Z,99581.06
2023-05-15T12:03:56.080Z,99591.78
2023-05-15T12:06:24.482Z,99574.72
2023-05-15T12:08:53.407Z,99577.88
2023-05-15T12:11:25.449Z,99583.75
2023-05-15T12:13:56.526Z,99572.81
2023-05-15T12:16:28.252Z,99575.06
2023-05-15T12:18:58.947Z,99571.34
2023-05-15T12:21:27.526Z,99555.31
2023-05-15T12:26:28.320Z,99546.91
2023-05-15T12:28:56.457Z,99553.72
2023-05-15T12:31:24.334Z,99543.41
2023-05-15T12:33:51.766Z,99551.16
2023-05-15T12:36:22.625Z,99552.44
2023-05-15T12:38:49.923Z,99537.03
2023-05-15T12:41:17.673Z,99545.84
2023-05-15T12:43:44.900Z,99544.56
2023-05-15T12:46:15.015Z,99535.91
2023-05-15T12:48:42.403Z,99531.41
2023-05-15T12:51:09.955Z,99543.84
2023-05-15T12:53:40.061Z,99541.16
2023-05-15T12:56:09.361Z,99530.31
2023-05-15T12:58:38.330Z,99527.31
2023-05-15T13:01:06.318Z,99534.88
2023-05-15T13:03:34.382Z,99525.44
2023-05-15T13:06:07.138Z,99515.09
2023-05-15T13:08:40.391Z,99504.19
2023-05-15T13:11:12.905Z,99521.63
2023-05-15T13:13:45.130Z,99522.25
2023-05-15T13:16:24.613Z,99513.84
2023-05-15T13:18:52.484Z,99520.94
2023-05-15T13:21:20.125Z,99517.25
2023-05-15T13:23:47.527Z,99530.09
2023-05-15T13:26:14.990Z,99521.19
2023-05-15T13:28:42.194Z,99507.56
2023-05-15T13:31:09.697Z,99513.56
2023-05-15T13:33:37.629Z,99516.69
2023-05-15T13:36:05.557Z,99509.34
2023-05-15T13:38:33.484Z,99510.53
2023-05-15T13:41:01.052Z,99503.66
2023-05-15T13:43:28.372Z,99490.75
2023-05-15T13:45:56.080Z,99491.81
2023-05-15T13:48:23.390Z,99492.06
2023-05-15T13:50:51.207Z,99495.66
2023-05-15T13:53:18.799Z,99507.25
2023-05-15T13:55:46.932Z,99488.94
2023-05-15T13:58:15.148Z,99489.22
2023-05-15T14:00:44.056Z,99494.09
2023-05-15T14:03:14.790Z,99504.56
2023-05-15T14:05:42.907Z,99483.00
2023-05-15T14:08:10.143Z,99468.84
2023-05-15T14:10:37.735Z,99480.31
2023-05-15T14:13:05.038Z,99473.03
2023-05-15T14:15:32.521Z,99467.06
2023-05-15T14:17:59.754Z,99466.41
2023-05-15T14:20:27.520Z,99450.75
2023-05-15T14:22:54.939Z,99447.03
2023-05-15T14:25:22.699Z,99449.56
2023-05-15T14:27:49.914Z,99443.53
2023-05-15T14:30:17.386Z,99449.56
2023-05-15T14:32:44.586Z,99438.03
2023-05-15T14:35:12.054Z,99435.13
2023-05-15T14:37:39.282Z,99423.41
2023-05-15T14:40:08.150Z,99420.59
2023-05-15T14:42:35.345Z,99410.44
2023-05-15T14:45:03.159Z,99400.94
2023-05-15T14:47:31.365Z,99411.75
2023-05-15T14:49:59.078Z,99394.94
2023-05-15T14:52:26.273Z,99401.53
2023-05-15T14:55:07.779Z,99388.72
2023-05-15T14:57:35.855Z,99389.50
2023-05-15T15:00:06.315Z,99387.78
2023-05-15T15:02:33.862Z,99378.03
2023-05-15T15:05:01.668Z,99373.97
2023-05-15T15:07:32.750Z,99366.16
2023-05-15T15:10:00.259Z,99357.00
2023-05-15T15:12:27.720Z,99355.06
2023-05-15T15:14:55.174Z,99364.13
2023-05-15T15:17:22.823Z,99338.69
2023-05-15T15:19:50.338Z,99326.41
2023-05-15T15:22:17.540Z,99318.13
2023-05-15T15:24:45.160Z,99340.53
2023-05-15T15:27:12.428Z,99321.16
2023-05-15T15:29:39.986Z,99323.13
2023-05-15T15:32:07.595Z,99321.34
2023-05-15T15:34:35.193Z,99308.91
2023-05-15T15:37:02.364Z,99312.44
2023-05-15T15:39:29.817Z,99299.34
2023-05-15T15:41:57.102Z,99297.06
2023-05-15T15:44:24.562Z,99298.00
2023-05-15T15:46:51.748Z,99283.28
2023-05-15T15:49:19.249Z,99288.69
2023-05-15T15:51:46.595Z,99290.38
2023-05-15T15:54:14.046Z,99290.72
2023-05-15T15:56:42.899Z,99275.13
2023-05-15T15:59:10.411Z,99259.19
2023-05-15T16:01:37.645Z,99266.44
2023-05-15T16:04:05.238Z,99240.13
2023-05-15T16:06:33.469Z,99253.88
2023-05-15T16:09:01.767Z,99260.59
2023-05-15T16:11:29.738Z,99246.06
2023-05-15T16:13:57.193Z,99247.38
2023-05-15T16:16:24.707Z,99234.06
2023-05-15T16:18:52.212Z,99233.88
2023-05-15T16:21:19.408Z,99230.44
2023-05-15T16:23:46.947Z,99215.25
2023-05-15T16:26:14.135Z,99221.22
2023-05-15T16:28:41.599Z,99222.72
2023-05-15T16:31:09.713Z,99209.66
2023-05-15T16:33:37.411Z,99205.13
2023-05-15T16:36:05.356Z,99209.59
2023-05-15T16:38:32.920Z,99201.59
2023-05-15T16:41:00.101Z,99204.97
2023-05-15T16:43:27.679Z,99189.59
2023-05-15T16:45:54.888Z,99195.66
2023-05-15T16:48:22.984Z,99191.16
2023-05-15T16:50:50.527Z,99197.72
2023-05-15T16:53:18.870Z,99189.81
2023-05-15T16:55:47.054Z,99185.34
2023-05-15T16:58:14.951Z,99181.44
2023-05-15T17:00:42.114Z,99178.03
2023-05-15T17:03:09.704Z,99170.13
2023-05-15T17:05:36.920Z,99173.03
2023-05-15T17:08:05.660Z,99170.34
2023-05-15T17:10:32.868Z,99168.22
2023-05-15T17:13:00.465Z,99153.09
2023-05-15T17:15:28.039Z,99163.16
2023-05-15T17:17:58.069Z,99149.88
2023-05-15T17:20:25.336Z,99158.06
2023-05-15T17:22:52.810Z,99149.59
2023-05-15T17:25:20.019Z,99165.44
2023-05-15T17:27:47.494Z,99155.84
2023-05-15T17:30:14.946Z,99149.03
2023-05-15T17:32:42.477Z,99147.13
2023-05-15T17:35:10.389Z,99140.97
2023-05-15T17:37:38.115Z,99131.72
2023-05-15T17:40:05.886Z,99146.78
2023-05-15T17:42:33.451Z,99145.06
2023-05-15T17:45:00.852Z,99128.16
2023-05-15T17:47:28.510Z,99133.38
2023-05-15T17:49:55.872Z,99133.25
2023-05-15T17:52:23.371Z,99131.66
2023-05-15T17:54:50.884Z,99134.16
2023-05-15T17:57:18.454Z,99130.56
2023-05-15T17:59:45.702Z,99131.00
2023-05-15T18:02:13.265Z,99129.50
2023-05-15T18:04:40.562Z,99126.53
2023-05-15T18:07:08.048Z,99121.22
2023-05-15T18:09:35.402Z,99135.94
2023-05-15T18:12:02.890Z,99122.47
2023-05-15T18:14:30.125Z,99120.59
2023-05-15T18:16:57.794Z,99123.03
2023-05-15T18:19:25.113Z,99124.56
2023-05-15T18:21:52.789Z,99131.44
2023-05-15T18:24:20.109Z,99123.94
2023-05-15T18:26:47.652Z,99127.09
2023-05-15T18:29:14.830Z,99119.75
2023-05-15T18:31:42.473Z,99128.97
2023-05-15T18:34:09.736Z,99122.19
2023-05-15T18:36:37.223Z,99124.41
2023-05-15T18:39:04.434Z,99122.25
2023-05-15T18:41:32.007Z,99124.34
2023-05-15T18:43:59.287Z,99125.50
2023-05-15T18:46:28.440Z,99132.00
2023-05-15T18:48:55.775Z,99141.47
2023-05-15T18:51:23.912Z,99127.72
2023-05-15T18:53:51.325Z,99129.50
2023-05-15T18:56:18.826Z,99130.66
2023-05-15T18:58:47.490Z,99119.63
2023-05-15T19:01:15.099Z,99127.72
2023-05-15T19:03:42.414Z,99130.81
2023-05-15T19:06:10.043Z,99125.28
2023-05-15T19:08:37.201Z,99129.44
2023-05-15T19:11:04.667Z,99125.69
2023-05-15T19:13:33.194Z,99122.34
2023-05-15T19:16:00.693Z,99127.53
2023-05-15T19:18:27.971Z,99117.81
2023-05-15T19:20:56.801Z,99123.47
2023-05-15T19:23:24.665Z,99110.72
2023-05-15T19:25:52.705Z,99110.47
2023-05-15T19:28:19.921Z,99108.53
2023-05-15T19:30:47.413Z,99109.44
2023-05-15T19:33:16.070Z,99102.63
2023-05-15T19:35:44.332Z,99106.47
2023-05-15T19:38:11.674Z,99101.09
2023-05-15T19:40:39.268Z,99090.13
2023-05-15T19:43:06.569Z,99094.22
2023-05-15T19:45:34.061Z,99094.59
2023-05-15T19:48:01.435Z,99089.59
2023-05-15T19:50:29.549Z,99092.63
2023-05-15T19:52:57.398Z,99079.22
2023-05-15T19:55:25.080Z,99086.59
2023-05-15T19:57:56.036Z,99087.28
2023-05-15T20:00:23.945Z,99070.19
2023-05-15T20:02:51.324Z,99076.59
2023-05-15T20:05:18.962Z,99079.09
2023-05-15T20:07:46.377Z,99073.72
2023-05-15T20:10:14.227Z,99068.53
2023-05-15T20:12:41.404Z,99076.16
2023-05-15T20:15:09.296Z,99069.72
2023-05-15T20:17:36.465Z,99060.56
2023-05-15T20:20:08.912Z,99065.72
2023-05-15T20:22:36.259Z,99068.16
2023-05-15T20:25:04.056Z,99052.31
2023-05-15T20:27:31.283Z,99065.84
2023-05-15T20:29:59.311Z,99054.84
2023-05-15T20:32:26.847Z,99056.38
2023-05-15T20:34:55.963Z,99050.69
2023-05-15T20:37:27.230Z,99042.63
2023-05-15T20:39:54.952Z,99042.53
2023-05-15T20:42:22.705Z,99041.09
2023-05-15T20:44:51.661Z,99041.63
2023-05-15T20:47:19.016Z,99033.97
2023-05-15T20:49:46.634Z,99028.53
2023-05-15T20:52:13.924Z,99022.13
2023-05-15T20:54:41.427Z,99023.53
2023-05-15T20:57:08.687Z,99021.59
2023-05-15T20:59:36.224Z,99027.06
2023-05-15T21:02:03.461Z,99015.81
2023-05-15T21:04:31.289Z,99002.97
2023-05-15T21:06:58.756Z,99020.50
2023-05-15T21:09:26.306Z,99016.63
2023-05-15T21:11:53.509Z,99020.03
2023-05-15T21:14:21.062Z,99010.72
2023-05-15T21:16:48.321Z,99018.19
2023-05-15T21:19:15.997Z,99010.28
2023-05-15T21:21:43.274Z,98994.50
2023-05-15T21:24:10.866Z,99008.28
2023-05-15T21:26:38.038Z,99003.44
2023-05-15T21:29:05.678Z,98995.56
2023-05-15T21:31:33.114Z,99002.66
2023-05-15T21:34:00.790Z,99002.56
2023-05-15T21:36:27.949Z,99002.53
2023-05-15T21:38:55.458Z,98988.69
2023-05-15T21:41:22.763Z,98993.88
2023-05-15T21:43:50.264Z,99001.63
2023-05-15T21:46:17.521Z,98995.81
2023-05-15T21:48:46.133Z,98992.22
2023-05-15T21:51:13.381Z,98983.28
2023-05-15T21:53:41.102Z,98991.81
2023-05-15T21:56:08.592Z,98983.34
2023-05-15T21:58:36.132Z,98994.84
2023-05-15T22:01:03.311Z,98992.66
2023-05-15T22:03:31.209Z,98987.69
2023-05-15T22:05:58.581Z,98994.84
2023-05-15T22:08:26.676Z,98995.28
2023-05-15T22:10:54.029Z,98992.34
2023-05-15T22:13:21.707Z,98994.56
2023-05-15T22:15:48.930Z,98991.69
2023-05-15T22:18:16.577Z,98997.28
2023-05-15T22:20:45.178Z,98997.22
2023-05-15T22:23:12.730Z,98983.97
2023-05-15T22:25:40.000Z,98990.50
2023-05-15T22:28:07.497Z,98992.56
2023-05-15T22:30:35.608Z,98980.22
2023-05-15T22:33:03.126Z,98999.16
2023-05-15T22:35:30.661Z,98991.94
2023-05-15T22:37:58.130Z,98983.88
2023-05-15T22:40:26.359Z,98985.34
2023-05-15T22:42:54.095Z,98989.41
2023-05-15T22:45:21.262Z,98987.22
2023-05-15T22:47:49.552Z,98987.09
2023-05-15T22:50:16.888Z,98989.63
2023-05-15T22:52:44.310Z,98986.56
2023-05-15T22:55:12.963Z,98982.13
2023-05-15T22:57:40.532Z,98982.59
2023-05-15T23:00:09.865Z,98971.00
2023-05-15T23:02:38.546Z,98968.06
2023-05-15T23:05:06.559Z,98969.31
2023-05-15T23:07:34.441Z,98978.69
2023-05-15T23:10:01.735Z,98960.09
2023-05-15T23:12:30.946Z,98959.06
2023-05-15T23:14:58.154Z,98961.91
2023-05-15T23:17:26.640Z,98966.69
2023-05-15T23:19:54.021Z,98966.47
2023-05-15T23:22:21.451Z,98957.63
2023-05-15T23:24:48.762Z,98956.88
2023-05-15T23:27:16.280Z,98955.69
2023-05-15T23:29:43.452Z,98956.66
2023-05-15T23:32:10.939Z,98959.50
2023-05-15T23:34:38.125Z,98952.28
2023-05-15T23:37:06.000Z,98956.88
2023-05-15T23:39:33.166Z,98955.16
2023-05-15T23:42:00.647Z,98952.31
2023-05-15T23:44:27.991Z,98957.88
2023-05-15T23:46:55.701Z,98958.59
2023-05-15T23:49:23.053Z,98960.66
2023-05-15T23:51:50.571Z,98954.44
2023-05-15T23:54:17.773Z,98954.47
2023-05-15T23:56:45.433Z,98953.88
2023-05-15T23:59:13.875Z,98952.22
